John R Operle — WDB8611 — position and weather

sailwx.info

Track history (hours):
 
Tides and Currents Weather Stations Pressure Air Temp Water Temp Dewpoint Dewpoint Depression Visibility Wind Speed Wind Dir Waves Ship Positions

John R Operle

Owner: INGRAM BARGE COMPANY, Nashville, TN. More information available from US FCC via Universal Licensing System and Coast Guard Vessel Documentation Center.

Last reported at 2017-Apr-24 07:02 UTC. Time now 2017-Apr-25 16:16 UTC.
Position N 38°52' W 090°33'.

Length 48 m; draft 3 m.

Type: Towing. MMSI: 366961510.

Date/timePositionNaut miles runAvg speedWind from/ knotsBaromVisibWave heightAir tempDewpointWater temp
2017-Apr-24 07:02N 38°52' W 090°33'0 6.1
2017-Apr-24 06:59N 38°52' W 090°33'2 3.8
2017-Apr-24 06:30N 38°54' W 090°31'3 6.9
2017-Apr-24 06:00N 38°56' W 090°29'3 6.5
2017-Apr-24 05:30N 38°58' W 090°25'3 6.8
2017-Apr-24 05:00N 38°57' W 090°21'3 6.3
2017-Apr-24 04:30N 38°55' W 090°17'3 6.3
2017-Apr-24 04:00N 38°55' W 090°13'3 5.9
2017-Apr-24 03:26N 38°53' W 090°10'1 2.1
2017-Apr-24 02:57N 38°52' W 090°09'1 2.3
2017-Apr-24 02:28N 38°51' W 090°08'2 0.1
2017-Apr-23 05:33N 38°52' W 090°09'0 2.1
2017-Apr-23 05:30N 38°52' W 090°09'3 6.1
2017-Apr-23 05:00N 38°54' W 090°13'5 9.2
2017-Apr-23 04:30N 38°55' W 090°18'5 9.6
2017-Apr-23 04:00N 38°58' W 090°24'4 8.0
2017-Apr-23 03:30N 38°57' W 090°29'4 8.1
2017-Apr-23 03:00N 38°53' W 090°32'  
2017-Apr-19 14:08N 38°52' W 090°33'4 5.9
2017-Apr-19 13:30N 38°55' W 090°30'3 5.9
2017-Apr-19 13:00N 38°57' W 090°28'3 5.1
2017-Apr-19 12:30N 38°58' W 090°24'2 4.2
2017-Apr-19 12:00N 38°57' W 090°22'3 5.9
2017-Apr-19 11:30N 38°55' W 090°19'3 5.8
2017-Apr-19 11:00N 38°55' W 090°15'1 1.3
2017-Apr-19 10:30N 38°55' W 090°14'2 2.9
2017-Apr-19 10:00N 38°54' W 090°13'3 4.9
2017-Apr-19 09:26N 38°53' W 090°10'0 0.0
2017-Apr-18 03:44N 38°52' W 090°09'1 4.0
2017-Apr-18 03:27N 38°53' W 090°11'3 5.1
2017-Apr-18 02:58N 38°55' W 090°13'0 0.4
2017-Apr-18 02:30N 38°55' W 090°13'0 0.2
2017-Apr-18 01:49N 38°55' W 090°13'1 3.4
2017-Apr-18 01:30N 38°55' W 090°15'4 7.8
2017-Apr-18 01:00N 38°56' W 090°20'4 8.2
2017-Apr-18 00:30N 38°58' W 090°24'3 5.9
2017-Apr-18 00:00N 38°57' W 090°28'4 7.7
2017-Apr-17 23:30N 38°54' W 090°31'  
Track history (hours):
 
Tides and Currents Weather Stations Pressure Air Temp Water Temp Dewpoint Dewpoint Depression Visibility Wind Speed Wind Dir Waves Ship Positions

John R Operle

Owner: INGRAM BARGE COMPANY, Nashville, TN. More information available from US FCC via Universal Licensing System and Coast Guard Vessel Documentation Center.

Last reported at 2017-Apr-24 07:02 UTC. Time now 2017-Apr-25 16:16 UTC.
Position N 38°52' W 090°33'.

Length 48 m; draft 3 m.

Type: Towing. MMSI: 366961510.

Date/timePositionNaut miles runAvg speedWind from/ knotsBaromVisibWave heightAir tempDewpointWater temp
2017-Apr-24 07:02N 38°52' W 090°33'0 6.1
2017-Apr-24 06:59N 38°52' W 090°33'2 3.8
2017-Apr-24 06:30N 38°54' W 090°31'3 6.9
2017-Apr-24 06:00N 38°56' W 090°29'3 6.5
2017-Apr-24 05:30N 38°58' W 090°25'3 6.8
2017-Apr-24 05:00N 38°57' W 090°21'3 6.3
2017-Apr-24 04:30N 38°55' W 090°17'3 6.3
2017-Apr-24 04:00N 38°55' W 090°13'3 5.9
2017-Apr-24 03:26N 38°53' W 090°10'1 2.1
2017-Apr-24 02:57N 38°52' W 090°09'1 2.3
2017-Apr-24 02:28N 38°51' W 090°08'2 0.1
2017-Apr-23 05:33N 38°52' W 090°09'0 2.1
2017-Apr-23 05:30N 38°52' W 090°09'3 6.1
2017-Apr-23 05:00N 38°54' W 090°13'5 9.2
2017-Apr-23 04:30N 38°55' W 090°18'5 9.6
2017-Apr-23 04:00N 38°58' W 090°24'4 8.0
2017-Apr-23 03:30N 38°57' W 090°29'4 8.1
2017-Apr-23 03:00N 38°53' W 090°32'  
2017-Apr-19 14:08N 38°52' W 090°33'4 5.9
2017-Apr-19 13:30N 38°55' W 090°30'3 5.9
2017-Apr-19 13:00N 38°57' W 090°28'3 5.1
2017-Apr-19 12:30N 38°58' W 090°24'2 4.2
2017-Apr-19 12:00N 38°57' W 090°22'3 5.9
2017-Apr-19 11:30N 38°55' W 090°19'3 5.8
2017-Apr-19 11:00N 38°55' W 090°15'1 1.3
2017-Apr-19 10:30N 38°55' W 090°14'2 2.9
2017-Apr-19 10:00N 38°54' W 090°13'3 4.9
2017-Apr-19 09:26N 38°53' W 090°10'0 0.0
2017-Apr-18 03:44N 38°52' W 090°09'1 4.0
2017-Apr-18 03:27N 38°53' W 090°11'3 5.1
2017-Apr-18 02:58N 38°55' W 090°13'0 0.4
2017-Apr-18 02:30N 38°55' W 090°13'0 0.2
2017-Apr-18 01:49N 38°55' W 090°13'1 3.4
2017-Apr-18 01:30N 38°55' W 090°15'4 7.8
2017-Apr-18 01:00N 38°56' W 090°20'4 8.2
2017-Apr-18 00:30N 38°58' W 090°24'3 5.9
2017-Apr-18 00:00N 38°57' W 090°28'4 7.7
2017-Apr-17 23:30N 38°54' W 090°31'  

Dump ship's entire track history